sensor_id;sensor_type;location;lat;lon;timestamp;P1;P2;P0
47081;PMS5003;33066;49.296;14.470;2023-06-24T00:01:04;0;0;
47081;PMS5003;33066;49.296;14.470;2023-06-24T00:03:31;0;0;
47081;PMS5003;33066;49.296;14.470;2023-06-24T00:05:54;0;0;
47081;PMS5003;33066;49.296;14.470;2023-06-24T00:08:20;0;0;
47081;PMS5003;33066;49.296;14.470;2023-06-24T00:10:45;1;1;
47081;PMS5003;33066;49.296;14.470;2023-06-24T00:13:10;0;0;
47081;PMS5003;33066;49.296;14.470;2023-06-24T00:15:35;0;0;
47081;PMS5003;33066;49.296;14.470;2023-06-24T00:18:00;0;0;
47081;PMS5003;33066;49.296;14.470;2023-06-24T00:20:25;0;0;
47081;PMS5003;33066;49.296;14.470;2023-06-24T00:22:50;0;0;
47081;PMS5003;33066;49.296;14.470;2023-06-24T00:25:15;0;0;
47081;PMS5003;33066;49.296;14.470;2023-06-24T00:27:40;0;0;
47081;PMS5003;33066;49.296;14.470;2023-06-24T00:30:05;0;0;
47081;PMS5003;33066;49.296;14.470;2023-06-24T00:32:31;0;0;
47081;PMS5003;33066;49.296;14.470;2023-06-24T00:34:55;0;0;
47081;PMS5003;33066;49.296;14.470;2023-06-24T00:37:21;0;0;
47081;PMS5003;33066;49.296;14.470;2023-06-24T00:39:45;0;0;
47081;PMS5003;33066;49.296;14.470;2023-06-24T00:42:10;0;0;
47081;PMS5003;33066;49.296;14.470;2023-06-24T00:44:35;0;0;
47081;PMS5003;33066;49.296;14.470;2023-06-24T00:47:00;0;0;
47081;PMS5003;33066;49.296;14.470;2023-06-24T00:49:25;0;0;
47081;PMS5003;33066;49.296;14.470;2023-06-24T00:51:50;1;0;
47081;PMS5003;33066;49.296;14.470;2023-06-24T00:54:15;0;0;
47081;PMS5003;33066;49.296;14.470;2023-06-24T00:56:40;0;0;
47081;PMS5003;33066;49.296;14.470;2023-06-24T00:59:05;0;0;
47081;PMS5003;33066;49.296;14.470;2023-06-24T01:01:32;0;0;
47081;PMS5003;33066;49.296;14.470;2023-06-24T01:03:57;0;0;
47081;PMS5003;33066;49.296;14.470;2023-06-24T01:06:20;0;0;
47081;PMS5003;33066;49.296;14.470;2023-06-24T01:08:45;0;0;
47081;PMS5003;33066;49.296;14.470;2023-06-24T01:11:10;0;0;
47081;PMS5003;33066;49.296;14.470;2023-06-24T01:13:35;0;0;
47081;PMS5003;33066;49.296;14.470;2023-06-24T01:16:02;0;0;
47081;PMS5003;33066;49.296;14.470;2023-06-24T01:18:29;0;0;
47081;PMS5003;33066;49.296;14.470;2023-06-24T01:20:53;0;0;
47081;PMS5003;33066;49.296;14.470;2023-06-24T01:23:24;0;0;
47081;PMS5003;33066;49.296;14.470;2023-06-24T01:25:48;0;0;
47081;PMS5003;33066;49.296;14.470;2023-06-24T01:28:11;0;0;
47081;PMS5003;33066;49.296;14.470;2023-06-24T01:30:40;0;0;
47081;PMS5003;33066;49.296;14.470;2023-06-24T01:32:56;1;1;
47081;PMS5003;33066;49.296;14.470;2023-06-24T01:35:21;0;0;
47081;PMS5003;33066;49.296;14.470;2023-06-24T01:37:46;1;1;
47081;PMS5003;33066;49.296;14.470;2023-06-24T01:40:12;0;0;
47081;PMS5003;33066;49.296;14.470;2023-06-24T01:42:37;1;1;
47081;PMS5003;33066;49.296;14.470;2023-06-24T01:45:02;0;0;
47081;PMS5003;33066;49.296;14.470;2023-06-24T01:47:26;0;0;
47081;PMS5003;33066;49.296;14.470;2023-06-24T01:49:52;1;1;
47081;PMS5003;33066;49.296;14.470;2023-06-24T01:52:16;1;1;
47081;PMS5003;33066;49.296;14.470;2023-06-24T01:54:41;1;1;
47081;PMS5003;33066;49.296;14.470;2023-06-24T01:57:07;2;2;
47081;PMS5003;33066;49.296;14.470;2023-06-24T01:59:31;1;1;
47081;PMS5003;33066;49.296;14.470;2023-06-24T02:01:56;0;0;
47081;PMS5003;33066;49.296;14.470;2023-06-24T02:04:21;1;1;
47081;PMS5003;33066;49.296;14.470;2023-06-24T02:06:46;2;2;
47081;PMS5003;33066;49.296;14.470;2023-06-24T02:09:11;1;1;
47081;PMS5003;33066;49.296;14.470;2023-06-24T02:11:36;1;1;
47081;PMS5003;33066;49.296;14.470;2023-06-24T02:14:02;2;2;
47081;PMS5003;33066;49.296;14.470;2023-06-24T02:16:27;0;0;
47081;PMS5003;33066;49.296;14.470;2023-06-24T02:18:51;3;2;
47081;PMS5003;33066;49.296;14.470;2023-06-24T02:21:17;3;2;
47081;PMS5003;33066;49.296;14.470;2023-06-24T02:23:42;1;1;
47081;PMS5003;33066;49.296;14.470;2023-06-24T02:26:07;2;1;
47081;PMS5003;33066;49.296;14.470;2023-06-24T02:28:32;1;0;
47081;PMS5003;33066;49.296;14.470;2023-06-24T02:30:57;0;0;
47081;PMS5003;33066;49.296;14.470;2023-06-24T02:33:22;1;1;
47081;PMS5003;33066;49.296;14.470;2023-06-24T02:35:47;0;0;
47081;PMS5003;33066;49.296;14.470;2023-06-24T02:38:12;1;1;
47081;PMS5003;33066;49.296;14.470;2023-06-24T02:40:37;2;2;
47081;PMS5003;33066;49.296;14.470;2023-06-24T02:43:02;1;1;
47081;PMS5003;33066;49.296;14.470;2023-06-24T02:45:27;1;1;
47081;PMS5003;33066;49.296;14.470;2023-06-24T02:47:53;3;2;
47081;PMS5003;33066;49.296;14.470;2023-06-24T02:50:18;2;2;
47081;PMS5003;33066;49.296;14.470;2023-06-24T02:52:43;1;1;
47081;PMS5003;33066;49.296;14.470;2023-06-24T02:55:08;1;1;
47081;PMS5003;33066;49.296;14.470;2023-06-24T02:57:33;2;2;
47081;PMS5003;33066;49.296;14.470;2023-06-24T02:59:59;0;0;
47081;PMS5003;33066;49.296;14.470;2023-06-24T03:02:23;1;1;
47081;PMS5003;33066;49.296;14.470;2023-06-24T03:04:48;1;1;
47081;PMS5003;33066;49.296;14.470;2023-06-24T03:07:13;2;2;
47081;PMS5003;33066;49.296;14.470;2023-06-24T03:09:38;4;4;
47081;PMS5003;33066;49.296;14.470;2023-06-24T03:13:00;2;2;
47081;PMS5003;33066;49.296;14.470;2023-06-24T03:15:25;1;1;
47081;PMS5003;33066;49.296;14.470;2023-06-24T03:17:52;1;1;
47081;PMS5003;33066;49.296;14.470;2023-06-24T03:20:15;2;2;
47081;PMS5003;33066;49.296;14.470;2023-06-24T03:22:40;2;2;
47081;PMS5003;33066;49.296;14.470;2023-06-24T03:25:07;3;2;
47081;PMS5003;33066;49.296;14.470;2023-06-24T03:27:30;2;2;
47081;PMS5003;33066;49.296;14.470;2023-06-24T03:29:57;5;5;
47081;PMS5003;33066;49.296;14.470;2023-06-24T03:32:20;4;3;
47081;PMS5003;33066;49.296;14.470;2023-06-24T03:34:45;3;3;
47081;PMS5003;33066;49.296;14.470;2023-06-24T03:37:10;4;4;
47081;PMS5003;33066;49.296;14.470;2023-06-24T03:39:35;3;2;
47081;PMS5003;33066;49.296;14.470;2023-06-24T03:42:02;3;3;
47081;PMS5003;33066;49.296;14.470;2023-06-24T03:44:27;3;2;
47081;PMS5003;33066;49.296;14.470;2023-06-24T03:46:50;4;4;
47081;PMS5003;33066;49.296;14.470;2023-06-24T03:49:15;3;3;
47081;PMS5003;33066;49.296;14.470;2023-06-24T03:51:40;2;2;
47081;PMS5003;33066;49.296;14.470;2023-06-24T03:54:05;6;3;
47081;PMS5003;33066;49.296;14.470;2023-06-24T03:56:30;7;4;
47081;PMS5003;33066;49.296;14.470;2023-06-24T03:58:55;5;5;
47081;PMS5003;33066;49.296;14.470;2023-06-24T04:01:21;4;3;
47081;PMS5003;33066;49.296;14.470;2023-06-24T04:03:48;5;3;
47081;PMS5003;33066;49.296;14.470;2023-06-24T04:06:11;8;5;
47081;PMS5003;33066;49.296;14.470;2023-06-24T04:08:36;3;3;
47081;PMS5003;33066;49.296;14.470;2023-06-24T04:11:01;1;1;
47081;PMS5003;33066;49.296;14.470;2023-06-24T04:13:26;3;3;
47081;PMS5003;33066;49.296;14.470;2023-06-24T04:15:51;4;4;
47081;PMS5003;33066;49.296;14.470;2023-06-24T04:18:16;4;4;
47081;PMS5003;33066;49.296;14.470;2023-06-24T04:20:41;3;3;
47081;PMS5003;33066;49.296;14.470;2023-06-24T04:23:06;2;2;
47081;PMS5003;33066;49.296;14.470;2023-06-24T04:25:31;4;2;
47081;PMS5003;33066;49.296;14.470;2023-06-24T04:27:57;4;3;
47081;PMS5003;33066;49.296;14.470;2023-06-24T04:30:21;1;1;
47081;PMS5003;33066;49.296;14.470;2023-06-24T04:32:47;4;3;
47081;PMS5003;33066;49.296;14.470;2023-06-24T04:35:11;3;3;
47081;PMS5003;33066;49.296;14.470;2023-06-24T04:37:36;6;5;
47081;PMS5003;33066;49.296;14.470;2023-06-24T04:40:01;7;3;
47081;PMS5003;33066;49.296;14.470;2023-06-24T04:42:26;3;3;
47081;PMS5003;33066;49.296;14.470;2023-06-24T04:44:51;2;2;
47081;PMS5003;33066;49.296;14.470;2023-06-24T04:47:16;4;4;
47081;PMS5003;33066;49.296;14.470;2023-06-24T04:49:42;4;4;
47081;PMS5003;33066;49.296;14.470;2023-06-24T04:52:07;5;4;
47081;PMS5003;33066;49.296;14.470;2023-06-24T04:54:32;7;4;
47081;PMS5003;33066;49.296;14.470;2023-06-24T04:56:57;2;1;
47081;PMS5003;33066;49.296;14.470;2023-06-24T04:59:22;4;3;
47081;PMS5003;33066;49.296;14.470;2023-06-24T05:01:47;3;3;
47081;PMS5003;33066;49.296;14.470;2023-06-24T05:04:12;3;3;
47081;PMS5003;33066;49.296;14.470;2023-06-24T05:06:37;4;3;
47081;PMS5003;33066;49.296;14.470;2023-06-24T05:09:03;6;5;
47081;PMS5003;33066;49.296;14.470;2023-06-24T05:11:28;4;4;
47081;PMS5003;33066;49.296;14.470;2023-06-24T05:13:53;5;5;
47081;PMS5003;33066;49.296;14.470;2023-06-24T05:16:18;6;5;
47081;PMS5003;33066;49.296;14.470;2023-06-24T05:18:44;4;4;
47081;PMS5003;33066;49.296;14.470;2023-06-24T05:21:08;3;2;
47081;PMS5003;33066;49.296;14.470;2023-06-24T05:23:33;5;3;
47081;PMS5003;33066;49.296;14.470;2023-06-24T05:25:58;3;3;
47081;PMS5003;33066;49.296;14.470;2023-06-24T05:28:23;7;4;
47081;PMS5003;33066;49.296;14.470;2023-06-24T05:30:48;6;6;
47081;PMS5003;33066;49.296;14.470;2023-06-24T05:33:14;2;2;
47081;PMS5003;33066;49.296;14.470;2023-06-24T05:35:39;7;3;
47081;PMS5003;33066;49.296;14.470;2023-06-24T05:38:04;8;7;
47081;PMS5003;33066;49.296;14.470;2023-06-24T05:40:29;3;3;
47081;PMS5003;33066;49.296;14.470;2023-06-24T05:42:54;6;5;
47081;PMS5003;33066;49.296;14.470;2023-06-24T05:45:19;4;4;
47081;PMS5003;33066;49.296;14.470;2023-06-24T05:47:44;4;4;
47081;PMS5003;33066;49.296;14.470;2023-06-24T05:50:11;4;4;
47081;PMS5003;33066;49.296;14.470;2023-06-24T05:52:36;7;4;
47081;PMS5003;33066;49.296;14.470;2023-06-24T05:55:00;8;6;
47081;PMS5003;33066;49.296;14.470;2023-06-24T05:57:24;8;7;
47081;PMS5003;33066;49.296;14.470;2023-06-24T05:59:50;9;9;
47081;PMS5003;33066;49.296;14.470;2023-06-24T06:02:15;6;4;
47081;PMS5003;33066;49.296;14.470;2023-06-24T06:04:40;7;6;
47081;PMS5003;33066;49.296;14.470;2023-06-24T06:07:05;11;4;
47081;PMS5003;33066;49.296;14.470;2023-06-24T06:09:30;5;4;
47081;PMS5003;33066;49.296;14.470;2023-06-24T06:11:56;5;5;
47081;PMS5003;33066;49.296;14.470;2023-06-24T06:14:20;6;5;
47081;PMS5003;33066;49.296;14.470;2023-06-24T06:16:46;6;5;
47081;PMS5003;33066;49.296;14.470;2023-06-24T06:19:12;8;7;
47081;PMS5003;33066;49.296;14.470;2023-06-24T06:21:37;11;8;
47081;PMS5003;33066;49.296;14.470;2023-06-24T06:24:04;10;10;
47081;PMS5003;33066;49.296;14.470;2023-06-24T06:26:27;7;7;
47081;PMS5003;33066;49.296;14.470;2023-06-24T06:28:53;6;6;
47081;PMS5003;33066;49.296;14.470;2023-06-24T06:31:18;6;6;
47081;PMS5003;33066;49.296;14.470;2023-06-24T06:33:43;11;8;
47081;PMS5003;33066;49.296;14.470;2023-06-24T06:36:08;9;9;
47081;PMS5003;33066;49.296;14.470;2023-06-24T06:38:34;7;6;
47081;PMS5003;33066;49.296;14.470;2023-06-24T06:40:59;8;7;
47081;PMS5003;33066;49.296;14.470;2023-06-24T06:43:24;7;6;
47081;PMS5003;33066;49.296;14.470;2023-06-24T06:45:49;6;6;
47081;PMS5003;33066;49.296;14.470;2023-06-24T06:48:15;7;7;
47081;PMS5003;33066;49.296;14.470;2023-06-24T06:50:40;6;6;
47081;PMS5003;33066;49.296;14.470;2023-06-24T06:53:05;9;8;
47081;PMS5003;33066;49.296;14.470;2023-06-24T06:55:31;10;7;
47081;PMS5003;33066;49.296;14.470;2023-06-24T06:57:56;9;8;
47081;PMS5003;33066;49.296;14.470;2023-06-24T07:00:21;5;5;
47081;PMS5003;33066;49.296;14.470;2023-06-24T07:02:46;7;5;
47081;PMS5003;33066;49.296;14.470;2023-06-24T07:05:12;10;9;
47081;PMS5003;33066;49.296;14.470;2023-06-24T07:07:37;9;9;
47081;PMS5003;33066;49.296;14.470;2023-06-24T07:10:02;8;7;
47081;PMS5003;33066;49.296;14.470;2023-06-24T07:12:29;10;10;
47081;PMS5003;33066;49.296;14.470;2023-06-24T07:14:53;8;7;
47081;PMS5003;33066;49.296;14.470;2023-06-24T07:17:18;8;8;
47081;PMS5003;33066;49.296;14.470;2023-06-24T07:19:43;9;8;
47081;PMS5003;33066;49.296;14.470;2023-06-24T07:22:09;12;9;
47081;PMS5003;33066;49.296;14.470;2023-06-24T07:24:34;10;9;
47081;PMS5003;33066;49.296;14.470;2023-06-24T07:26:59;8;8;
47081;PMS5003;33066;49.296;14.470;2023-06-24T07:29:26;13;8;
47081;PMS5003;33066;49.296;14.470;2023-06-24T07:31:49;11;8;
47081;PMS5003;33066;49.296;14.470;2023-06-24T07:34:16;11;9;
47081;PMS5003;33066;49.296;14.470;2023-06-24T07:36:39;11;10;
47081;PMS5003;33066;49.296;14.470;2023-06-24T07:39:05;14;13;
47081;PMS5003;33066;49.296;14.470;2023-06-24T07:41:30;16;10;
47081;PMS5003;33066;49.296;14.470;2023-06-24T07:43:56;15;13;
47081;PMS5003;33066;49.296;14.470;2023-06-24T07:46:21;13;11;
47081;PMS5003;33066;49.296;14.470;2023-06-24T07:48:46;10;10;
47081;PMS5003;33066;49.296;14.470;2023-06-24T07:51:12;11;10;
47081;PMS5003;33066;49.296;14.470;2023-06-24T07:53:37;13;11;
47081;PMS5003;33066;49.296;14.470;2023-06-24T07:56:03;14;12;
47081;PMS5003;33066;49.296;14.470;2023-06-24T07:58:29;9;9;
47081;PMS5003;33066;49.296;14.470;2023-06-24T08:00:54;13;11;
47081;PMS5003;33066;49.296;14.470;2023-06-24T08:03:21;9;9;
47081;PMS5003;33066;49.296;14.470;2023-06-24T08:05:45;13;11;
47081;PMS5003;33066;49.296;14.470;2023-06-24T08:08:12;10;9;
47081;PMS5003;33066;49.296;14.470;2023-06-24T08:10:36;14;13;
47081;PMS5003;33066;49.296;14.470;2023-06-24T08:13:00;10;9;
47081;PMS5003;33066;49.296;14.470;2023-06-24T08:15:25;12;10;
47081;PMS5003;33066;49.296;14.470;2023-06-24T08:17:52;12;12;
47081;PMS5003;33066;49.296;14.470;2023-06-24T08:20:16;12;11;
47081;PMS5003;33066;49.296;14.470;2023-06-24T08:22:42;16;15;
47081;PMS5003;33066;49.296;14.470;2023-06-24T08:25:07;13;12;
47081;PMS5003;33066;49.296;14.470;2023-06-24T08:27:33;13;12;
47081;PMS5003;33066;49.296;14.470;2023-06-24T08:29:58;16;14;
47081;PMS5003;33066;49.296;14.470;2023-06-24T08:32:23;9;9;
47081;PMS5003;33066;49.296;14.470;2023-06-24T08:34:48;13;13;
47081;PMS5003;33066;49.296;14.470;2023-06-24T08:37:14;12;10;
47081;PMS5003;33066;49.296;14.470;2023-06-24T08:39:39;12;11;
47081;PMS5003;33066;49.296;14.470;2023-06-24T08:42:06;13;10;
47081;PMS5003;33066;49.296;14.470;2023-06-24T08:44:29;12;9;
47081;PMS5003;33066;49.296;14.470;2023-06-24T08:46:55;10;10;
47081;PMS5003;33066;49.296;14.470;2023-06-24T08:49:24;8;8;
47081;PMS5003;33066;49.296;14.470;2023-06-24T08:51:47;9;9;
47081;PMS5003;33066;49.296;14.470;2023-06-24T08:54:10;11;9;
47081;PMS5003;33066;49.296;14.470;2023-06-24T08:56:35;12;11;
47081;PMS5003;33066;49.296;14.470;2023-06-24T08:59:01;13;13;
47081;PMS5003;33066;49.296;14.470;2023-06-24T09:01:27;16;10;
47081;PMS5003;33066;49.296;14.470;2023-06-24T09:03:51;10;10;
47081;PMS5003;33066;49.296;14.470;2023-06-24T09:06:16;15;11;
47081;PMS5003;33066;49.296;14.470;2023-06-24T09:11:08;13;12;
47081;PMS5003;33066;49.296;14.470;2023-06-24T09:13:34;11;10;
47081;PMS5003;33066;49.296;14.470;2023-06-24T09:15:58;14;12;
47081;PMS5003;33066;49.296;14.470;2023-06-24T09:18:24;10;10;
47081;PMS5003;33066;49.296;14.470;2023-06-24T09:20:50;11;9;
47081;PMS5003;33066;49.296;14.470;2023-06-24T09:23:14;25;20;
47081;PMS5003;33066;49.296;14.470;2023-06-24T09:25:39;14;12;
47081;PMS5003;33066;49.296;14.470;2023-06-24T09:28:05;19;18;
47081;PMS5003;33066;49.296;14.470;2023-06-24T09:30:30;19;13;
47081;PMS5003;33066;49.296;14.470;2023-06-24T09:32:58;19;15;
47081;PMS5003;33066;49.296;14.470;2023-06-24T09:35:22;12;11;
47081;PMS5003;33066;49.296;14.470;2023-06-24T09:37:49;12;11;
47081;PMS5003;33066;49.296;14.470;2023-06-24T09:40:13;11;11;
47081;PMS5003;33066;49.296;14.470;2023-06-24T09:42:42;12;10;
47081;PMS5003;33066;49.296;14.470;2023-06-24T09:45:04;20;17;
47081;PMS5003;33066;49.296;14.470;2023-06-24T09:47:29;15;14;
47081;PMS5003;33066;49.296;14.470;2023-06-24T09:49:55;15;14;
47081;PMS5003;33066;49.296;14.470;2023-06-24T09:52:20;13;13;
47081;PMS5003;33066;49.296;14.470;2023-06-24T09:54:46;16;14;
47081;PMS5003;33066;49.296;14.470;2023-06-24T09:57:12;17;14;
47081;PMS5003;33066;49.296;14.470;2023-06-24T09:59:37;14;12;
47081;PMS5003;33066;49.296;14.470;2023-06-24T10:02:03;20;16;
47081;PMS5003;33066;49.296;14.470;2023-06-24T10:04:29;21;19;
47081;PMS5003;33066;49.296;14.470;2023-06-24T10:06:54;16;14;
47081;PMS5003;33066;49.296;14.470;2023-06-24T10:09:20;17;15;
47081;PMS5003;33066;49.296;14.470;2023-06-24T10:11:46;24;21;
47081;PMS5003;33066;49.296;14.470;2023-06-24T10:14:11;15;13;
47081;PMS5003;33066;49.296;14.470;2023-06-24T10:16:36;24;19;
47081;PMS5003;33066;49.296;14.470;2023-06-24T10:19:02;12;11;
47081;PMS5003;33066;49.296;14.470;2023-06-24T10:23:54;13;13;
47081;PMS5003;33066;49.296;14.470;2023-06-24T10:31:09;13;11;
47081;PMS5003;33066;49.296;14.470;2023-06-24T10:33:36;19;19;
47081;PMS5003;33066;49.296;14.470;2023-06-24T10:36:00;16;15;
47081;PMS5003;33066;49.296;14.470;2023-06-24T10:38:25;14;14;
47081;PMS5003;33066;49.296;14.470;2023-06-24T10:40:51;13;13;
47081;PMS5003;33066;49.296;14.470;2023-06-24T10:48:07;16;15;
47081;PMS5003;33066;49.296;14.470;2023-06-24T10:50:33;9;9;
47081;PMS5003;33066;49.296;14.470;2023-06-24T10:52:59;13;11;
47081;PMS5003;33066;49.296;14.470;2023-06-24T10:55:24;17;15;
47081;PMS5003;33066;49.296;14.470;2023-06-24T10:57:51;20;18;
47081;PMS5003;33066;49.296;14.470;2023-06-24T11:00:15;15;15;
47081;PMS5003;33066;49.296;14.470;2023-06-24T11:02:40;13;10;
47081;PMS5003;33066;49.296;14.470;2023-06-24T11:05:06;16;12;
47081;PMS5003;33066;49.296;14.470;2023-06-24T11:07:32;12;10;
47081;PMS5003;33066;49.296;14.470;2023-06-24T11:09:57;13;9;
47081;PMS5003;33066;49.296;14.470;2023-06-24T11:12:23;15;14;
47081;PMS5003;33066;49.296;14.470;2023-06-24T11:14:48;11;11;
47081;PMS5003;33066;49.296;14.470;2023-06-24T11:17:14;17;13;
47081;PMS5003;33066;49.296;14.470;2023-06-24T11:19:39;13;11;
47081;PMS5003;33066;49.296;14.470;2023-06-24T11:22:05;9;9;
47081;PMS5003;33066;49.296;14.470;2023-06-24T11:24:30;11;11;
47081;PMS5003;33066;49.296;14.470;2023-06-24T11:26:57;16;15;
47081;PMS5003;33066;49.296;14.470;2023-06-24T11:29:21;20;16;
47081;PMS5003;33066;49.296;14.470;2023-06-24T11:31:48;14;12;
47081;PMS5003;33066;49.296;14.470;2023-06-24T11:34:12;11;11;
47081;PMS5003;33066;49.296;14.470;2023-06-24T11:36:38;14;12;
47081;PMS5003;33066;49.296;14.470;2023-06-24T11:39:03;10;10;
47081;PMS5003;33066;49.296;14.470;2023-06-24T11:41:29;11;11;
47081;PMS5003;33066;49.296;14.470;2023-06-24T11:43:56;13;13;
47081;PMS5003;33066;49.296;14.470;2023-06-24T11:46:21;10;9;
47081;PMS5003;33066;49.296;14.470;2023-06-24T11:48:46;11;10;
47081;PMS5003;33066;49.296;14.470;2023-06-24T11:51:12;11;10;
47081;PMS5003;33066;49.296;14.470;2023-06-24T11:53:41;12;11;
47081;PMS5003;33066;49.296;14.470;2023-06-24T11:56:03;8;8;
47081;PMS5003;33066;49.296;14.470;2023-06-24T11:58:28;10;10;
47081;PMS5003;33066;49.296;14.470;2023-06-24T12:00:54;9;9;
47081;PMS5003;33066;49.296;14.470;2023-06-24T12:03:22;12;10;
47081;PMS5003;33066;49.296;14.470;2023-06-24T12:05:46;9;9;
47081;PMS5003;33066;49.296;14.470;2023-06-24T12:08:11;7;7;
47081;PMS5003;33066;49.296;14.470;2023-06-24T12:10:37;5;5;
47081;PMS5003;33066;49.296;14.470;2023-06-24T12:13:04;9;8;
47081;PMS5003;33066;49.296;14.470;2023-06-24T12:15:28;10;8;
47081;PMS5003;33066;49.296;14.470;2023-06-24T12:17:53;12;12;
47081;PMS5003;33066;49.296;14.470;2023-06-24T12:20:18;9;9;
47081;PMS5003;33066;49.296;14.470;2023-06-24T12:22:44;11;9;
47081;PMS5003;33066;49.296;14.470;2023-06-24T12:25:09;13;13;
47081;PMS5003;33066;49.296;14.470;2023-06-24T12:27:35;9;8;
47081;PMS5003;33066;49.296;14.470;2023-06-24T12:30:01;11;9;
47081;PMS5003;33066;49.296;14.470;2023-06-24T12:32:26;17;14;
47081;PMS5003;33066;49.296;14.470;2023-06-24T12:34:52;9;8;
47081;PMS5003;33066;49.296;14.470;2023-06-24T12:37:18;10;10;
47081;PMS5003;33066;49.296;14.470;2023-06-24T12:39:45;10;8;
47081;PMS5003;33066;49.296;14.470;2023-06-24T12:42:09;8;8;
47081;PMS5003;33066;49.296;14.470;2023-06-24T12:44:35;19;18;
47081;PMS5003;33066;49.296;14.470;2023-06-24T12:47:00;14;14;
47081;PMS5003;33066;49.296;14.470;2023-06-24T12:49:26;7;6;
47081;PMS5003;33066;49.296;14.470;2023-06-24T12:51:52;15;13;
47081;PMS5003;33066;49.296;14.470;2023-06-24T12:54:18;7;7;
47081;PMS5003;33066;49.296;14.470;2023-06-24T12:56:43;10;9;
47081;PMS5003;33066;49.296;14.470;2023-06-24T12:59:09;14;9;
47081;PMS5003;33066;49.296;14.470;2023-06-24T13:01:34;7;5;
47081;PMS5003;33066;49.296;14.470;2023-06-24T13:04:00;7;5;
47081;PMS5003;33066;49.296;14.470;2023-06-24T13:06:25;8;8;
47081;PMS5003;33066;49.296;14.470;2023-06-24T13:08:51;6;5;
47081;PMS5003;33066;49.296;14.470;2023-06-24T13:11:17;9;7;
47081;PMS5003;33066;49.296;14.470;2023-06-24T13:13:42;8;6;
47081;PMS5003;33066;49.296;14.470;2023-06-24T13:16:08;5;5;
47081;PMS5003;33066;49.296;14.470;2023-06-24T13:18:34;5;5;
47081;PMS5003;33066;49.296;14.470;2023-06-24T13:20:59;4;4;
47081;PMS5003;33066;49.296;14.470;2023-06-24T13:23:25;7;7;
47081;PMS5003;33066;49.296;14.470;2023-06-24T13:25:51;11;8;
47081;PMS5003;33066;49.296;14.470;2023-06-24T13:28:16;9;6;
47081;PMS5003;33066;49.296;14.470;2023-06-24T13:30:42;8;6;
47081;PMS5003;33066;49.296;14.470;2023-06-24T13:33:08;7;7;
47081;PMS5003;33066;49.296;14.470;2023-06-24T13:35:33;6;6;
47081;PMS5003;33066;49.296;14.470;2023-06-24T13:37:59;10;8;
47081;PMS5003;33066;49.296;14.470;2023-06-24T13:40:25;6;4;
47081;PMS5003;33066;49.296;14.470;2023-06-24T13:42:51;4;4;
47081;PMS5003;33066;49.296;14.470;2023-06-24T13:45:16;9;8;
47081;PMS5003;33066;49.296;14.470;2023-06-24T13:47:42;5;5;
47081;PMS5003;33066;49.296;14.470;2023-06-24T13:50:08;7;7;
47081;PMS5003;33066;49.296;14.470;2023-06-24T13:52:35;9;6;
47081;PMS5003;33066;49.296;14.470;2023-06-24T13:55:00;8;8;
47081;PMS5003;33066;49.296;14.470;2023-06-24T13:57:25;6;6;
47081;PMS5003;33066;49.296;14.470;2023-06-24T13:59:50;7;7;
47081;PMS5003;33066;49.296;14.470;2023-06-24T14:02:15;6;4;
47081;PMS5003;33066;49.296;14.470;2023-06-24T14:04:41;6;5;
47081;PMS5003;33066;49.296;14.470;2023-06-24T14:07:07;6;5;
47081;PMS5003;33066;49.296;14.470;2023-06-24T14:09:32;10;10;
47081;PMS5003;33066;49.296;14.470;2023-06-24T14:11:58;8;6;
47081;PMS5003;33066;49.296;14.470;2023-06-24T14:14:24;7;5;
47081;PMS5003;33066;49.296;14.470;2023-06-24T14:16:49;4;4;
47081;PMS5003;33066;49.296;14.470;2023-06-24T14:19:15;8;5;
47081;PMS5003;33066;49.296;14.470;2023-06-24T14:21:41;6;5;
47081;PMS5003;33066;49.296;14.470;2023-06-24T14:24:07;7;7;
47081;PMS5003;33066;49.296;14.470;2023-06-24T14:26:32;6;6;
47081;PMS5003;33066;49.296;14.470;2023-06-24T14:28:57;4;4;
47081;PMS5003;33066;49.296;14.470;2023-06-24T14:31:23;6;6;
47081;PMS5003;33066;49.296;14.470;2023-06-24T14:33:50;7;4;
47081;PMS5003;33066;49.296;14.470;2023-06-24T14:36:14;6;6;
47081;PMS5003;33066;49.296;14.470;2023-06-24T14:38:40;5;5;
47081;PMS5003;33066;49.296;14.470;2023-06-24T14:41:05;13;9;
47081;PMS5003;33066;49.296;14.470;2023-06-24T14:43:31;6;4;
47081;PMS5003;33066;49.296;14.470;2023-06-24T14:45:57;6;5;
47081;PMS5003;33066;49.296;14.470;2023-06-24T14:48:22;6;5;
47081;PMS5003;33066;49.296;14.470;2023-06-24T14:50:48;3;3;
47081;PMS5003;33066;49.296;14.470;2023-06-24T14:53:14;5;4;
47081;PMS5003;33066;49.296;14.470;2023-06-24T14:55:39;7;7;
47081;PMS5003;33066;49.296;14.470;2023-06-24T14:58:05;6;6;
47081;PMS5003;33066;49.296;14.470;2023-06-24T15:00:30;3;3;
47081;PMS5003;33066;49.296;14.470;2023-06-24T15:02:55;8;8;
47081;PMS5003;33066;49.296;14.470;2023-06-24T15:05:21;7;5;
47081;PMS5003;33066;49.296;14.470;2023-06-24T15:07:46;7;7;
47081;PMS5003;33066;49.296;14.470;2023-06-24T15:10:13;5;3;
47081;PMS5003;33066;49.296;14.470;2023-06-24T15:12:38;5;3;
47081;PMS5003;33066;49.296;14.470;2023-06-24T15:15:04;5;5;
47081;PMS5003;33066;49.296;14.470;2023-06-24T15:17:31;8;6;
47081;PMS5003;33066;49.296;14.470;2023-06-24T15:19:55;14;9;
47081;PMS5003;33066;49.296;14.470;2023-06-24T15:22:20;6;5;
47081;PMS5003;33066;49.296;14.470;2023-06-24T15:24:46;5;5;
47081;PMS5003;33066;49.296;14.470;2023-06-24T15:27:12;3;3;
47081;PMS5003;33066;49.296;14.470;2023-06-24T15:29:37;5;5;
47081;PMS5003;33066;49.296;14.470;2023-06-24T15:32:03;6;6;
47081;PMS5003;33066;49.296;14.470;2023-06-24T15:34:29;7;7;
47081;PMS5003;33066;49.296;14.470;2023-06-24T15:36:54;5;5;
47081;PMS5003;33066;49.296;14.470;2023-06-24T15:39:20;7;5;
47081;PMS5003;33066;49.296;14.470;2023-06-24T15:41:46;6;4;
47081;PMS5003;33066;49.296;14.470;2023-06-24T15:44:11;5;5;
47081;PMS5003;33066;49.296;14.470;2023-06-24T15:46:37;6;6;
47081;PMS5003;33066;49.296;14.470;2023-06-24T15:49:03;3;3;
47081;PMS5003;33066;49.296;14.470;2023-06-24T15:51:28;5;5;
47081;PMS5003;33066;49.296;14.470;2023-06-24T15:53:54;14;8;
47081;PMS5003;33066;49.296;14.470;2023-06-24T15:56:19;9;8;
47081;PMS5003;33066;49.296;14.470;2023-06-24T15:58:45;6;5;
47081;PMS5003;33066;49.296;14.470;2023-06-24T16:01:11;5;5;
47081;PMS5003;33066;49.296;14.470;2023-06-24T16:03:36;7;5;
47081;PMS5003;33066;49.296;14.470;2023-06-24T16:06:03;7;7;
47081;PMS5003;33066;49.296;14.470;2023-06-24T16:08:27;7;6;
47081;PMS5003;33066;49.296;14.470;2023-06-24T16:10:52;10;10;
47081;PMS5003;33066;49.296;14.470;2023-06-24T16:13:18;5;5;
47081;PMS5003;33066;49.296;14.470;2023-06-24T16:15:44;12;8;
47081;PMS5003;33066;49.296;14.470;2023-06-24T16:18:10;7;7;
47081;PMS5003;33066;49.296;14.470;2023-06-24T16:20:35;7;7;
47081;PMS5003;33066;49.296;14.470;2023-06-24T16:23:01;7;7;
47081;PMS5003;33066;49.296;14.470;2023-06-24T16:25:27;4;4;